createdAt,value
2023-01-07T00:00:00.591Z,1.9
2023-01-07T00:05:00.542Z,3.3
2023-01-07T00:10:00.556Z,1.7
2023-01-07T00:15:00.530Z,1.8
2023-01-07T00:20:00.563Z,1.3
2023-01-07T00:25:00.554Z,0.9
2023-01-07T00:30:00.560Z,0.5
2023-01-07T00:35:00.534Z,0.5
2023-01-07T00:40:00.674Z,0.5
2023-01-07T00:45:00.535Z,1.1
2023-01-07T00:50:01.204Z,2.7
2023-01-07T00:55:00.616Z,2.8
2023-01-07T01:00:00.591Z,4.0
2023-01-07T01:05:00.558Z,3.6
2023-01-07T01:10:00.620Z,2.3
2023-01-07T01:15:00.546Z,0.8
2023-01-07T01:20:00.633Z,0.5
2023-01-07T01:25:00.576Z,0.9
2023-01-07T01:30:00.563Z,0.5
2023-01-07T01:35:00.576Z,0.4
2023-01-07T01:40:00.613Z,0.3
2023-01-07T01:45:00.532Z,1.5
2023-01-07T01:50:00.579Z,0.8
2023-01-07T01:55:00.546Z,2.6
2023-01-07T02:00:00.633Z,3.6
2023-01-07T02:05:00.532Z,1.5
2023-01-07T02:10:00.626Z,1.1
2023-01-07T02:15:00.589Z,1.2
2023-01-07T02:20:00.764Z,0.4
2023-01-07T02:25:00.556Z,0.7
2023-01-07T02:30:00.645Z,0.7
2023-01-07T02:35:00.583Z,1.0
2023-01-07T02:40:00.637Z,2.5
2023-01-07T02:45:00.562Z,1.7
2023-01-07T02:50:00.604Z,1.6
2023-01-07T02:55:00.561Z,0.8
2023-01-07T03:00:00.574Z,0.0
2023-01-07T03:05:00.548Z,0.7
2023-01-07T03:10:00.627Z,0.4
2023-01-07T03:15:00.557Z,0.5
2023-01-07T03:20:00.563Z,2.2
2023-01-07T03:25:00.539Z,2.8
2023-01-07T03:30:00.542Z,2.3
2023-01-07T03:35:00.553Z,2.7
2023-01-07T03:40:00.543Z,2.1
2023-01-07T03:45:00.549Z,0.5
2023-01-07T03:50:00.620Z,0.2
2023-01-07T03:55:00.567Z,0.0
2023-01-07T04:00:00.686Z,0.5
2023-01-07T04:05:00.527Z,0.0
2023-01-07T04:10:00.618Z,0.0
2023-01-07T04:15:00.545Z,0.0
2023-01-07T04:20:00.557Z,0.2
2023-01-07T04:25:00.573Z,0.1
2023-01-07T04:30:00.623Z,0.5
2023-01-07T04:35:00.577Z,0.4
2023-01-07T04:40:00.586Z,0.5
2023-01-07T04:45:00.537Z,2.2
2023-01-07T04:50:00.577Z,0.7
2023-01-07T04:55:00.553Z,0.4
2023-01-07T05:00:00.720Z,0.8
2023-01-07T05:05:00.533Z,0.5
2023-01-07T05:10:00.621Z,0.2
2023-01-07T05:15:00.607Z,0.2
2023-01-07T05:20:00.630Z,0.3
2023-01-07T05:25:00.539Z,0.6
2023-01-07T05:30:00.602Z,0.7
2023-01-07T05:35:00.564Z,1.0
2023-01-07T05:40:00.575Z,1.2
2023-01-07T05:45:00.575Z,1.3
2023-01-07T05:50:00.590Z,0.3
2023-01-07T05:55:00.549Z,0.3
2023-01-07T06:00:00.600Z,0.1
2023-01-07T06:05:00.640Z,1.1
2023-01-07T06:10:03.299Z,0.4
2023-01-07T06:15:00.793Z,0.0
2023-01-07T06:20:00.622Z,0.1
2023-01-07T06:25:00.586Z,0.3
2023-01-07T06:30:00.593Z,0.6
2023-01-07T06:35:00.532Z,0.2
2023-01-07T06:40:00.560Z,0.4
2023-01-07T06:45:00.597Z,2.8
2023-01-07T06:50:00.569Z,1.7
2023-01-07T06:55:00.550Z,2.8
2023-01-07T07:00:00.588Z,0.9
2023-01-07T07:05:00.552Z,0.6
2023-01-07T07:10:00.582Z,0.9
2023-01-07T07:15:00.537Z,1.2
2023-01-07T07:20:00.554Z,0.9
2023-01-07T07:25:00.621Z,0.9
2023-01-07T07:30:00.549Z,2.4
2023-01-07T07:35:00.650Z,1.1
2023-01-07T07:40:00.601Z,1.6
2023-01-07T07:45:00.524Z,1.1
2023-01-07T07:50:00.538Z,2.3
2023-01-07T07:55:19.787Z,2.9
2023-01-07T08:00:00.571Z,1.2
2023-01-07T08:05:00.548Z,0.4
2023-01-07T08:10:00.579Z,3.1
2023-01-07T08:15:00.596Z,0.5
2023-01-07T08:20:00.546Z,2.6
2023-01-07T08:25:00.608Z,2.9
2023-01-07T08:30:00.594Z,1.1
2023-01-07T08:35:00.552Z,2.6
2023-01-07T08:40:00.589Z,2.8
2023-01-07T08:45:00.534Z,5.2
2023-01-07T08:50:00.587Z,2.7
2023-01-07T08:55:00.541Z,4.4
2023-01-07T09:00:00.557Z,4.1
2023-01-07T09:05:00.569Z,2.4
2023-01-07T09:10:00.528Z,2.3
2023-01-07T09:15:00.620Z,2.3
2023-01-07T09:20:00.558Z,2.9
2023-01-07T09:25:00.534Z,2.7
2023-01-07T09:30:00.664Z,1.9
2023-01-07T09:35:00.571Z,1.6
2023-01-07T09:40:00.598Z,2.2
2023-01-07T09:45:00.549Z,1.3
2023-01-07T09:50:00.590Z,3.0
2023-01-07T09:55:00.547Z,0.7
2023-01-07T10:00:00.544Z,2.4
2023-01-07T10:05:00.553Z,6.1
2023-01-07T10:10:00.556Z,3.0
2023-01-07T10:15:00.803Z,1.0
2023-01-07T10:20:00.645Z,3.4
2023-01-07T10:25:00.539Z,3.9
2023-01-07T10:30:00.651Z,4.3
2023-01-07T10:35:00.537Z,2.2
2023-01-07T10:40:00.623Z,2.4
2023-01-07T10:45:00.553Z,3.3
2023-01-07T10:50:00.547Z,4.2
2023-01-07T10:55:00.538Z,2.8
2023-01-07T11:00:00.625Z,3.9
2023-01-07T11:05:00.521Z,2.7
2023-01-07T11:10:00.643Z,1.8
2023-01-07T11:15:00.733Z,1.9
2023-01-07T11:20:00.599Z,2.9
2023-01-07T11:25:00.539Z,1.9
2023-01-07T11:30:00.586Z,2.6
2023-01-07T11:35:00.513Z,2.4
2023-01-07T11:40:00.570Z,1.6
2023-01-07T11:45:00.543Z,0.9
2023-01-07T11:50:00.539Z,1.5
2023-01-07T11:55:00.560Z,4.2
2023-01-07T12:00:00.550Z,4.2
2023-01-07T12:05:00.526Z,3.2
2023-01-07T12:10:00.547Z,3.8
2023-01-07T12:15:00.657Z,4.0
2023-01-07T12:20:00.547Z,1.7
2023-01-07T12:25:00.524Z,1.8
2023-01-07T12:30:00.582Z,1.8
2023-01-07T12:35:14.721Z,4.0
2023-01-07T12:40:00.637Z,1.4
2023-01-07T12:45:00.534Z,1.5
2023-01-07T12:50:00.800Z,4.3
2023-01-07T12:55:00.528Z,3.1
2023-01-07T13:00:00.587Z,4.0
2023-01-07T13:05:00.851Z,3.9
2023-01-07T13:10:00.537Z,4.0
2023-01-07T13:15:00.527Z,4.3
2023-01-07T13:20:01.003Z,3.6
2023-01-07T13:25:00.521Z,2.2
2023-01-07T13:30:00.573Z,2.6
2023-01-07T13:35:00.566Z,2.4
2023-01-07T13:40:00.625Z,1.7
2023-01-07T13:45:00.657Z,0.9
2023-01-07T13:50:00.593Z,2.7
2023-01-07T13:55:00.530Z,3.0
2023-01-07T14:00:00.765Z,3.4
2023-01-07T14:05:00.533Z,2.7
2023-01-07T14:10:00.613Z,0.6
2023-01-07T14:15:00.531Z,2.1
2023-01-07T14:20:00.610Z,1.8
2023-01-07T14:25:00.580Z,2.4
2023-01-07T14:30:16.215Z,2.9
2023-01-07T14:35:00.505Z,1.1
2023-01-07T14:40:00.562Z,1.7
2023-01-07T14:45:00.554Z,0.1
2023-01-07T14:50:00.622Z,1.4
2023-01-07T14:55:00.534Z,0.5
2023-01-07T15:00:00.581Z,0.0
2023-01-07T15:05:02.554Z,0.0
2023-01-07T15:10:00.612Z,0.0
2023-01-07T15:15:00.593Z,0.0
2023-01-07T15:20:00.597Z,0.3
2023-01-07T15:25:00.544Z,0.0
2023-01-07T15:30:00.604Z,0.0
2023-01-07T15:35:00.546Z,0.0
2023-01-07T15:40:00.573Z,0.0
2023-01-07T15:45:00.562Z,0.6
2023-01-07T15:50:00.847Z,0.3
2023-01-07T15:55:00.576Z,0.2
2023-01-07T16:00:00.582Z,0.0
2023-01-07T16:05:00.657Z,0.0
2023-01-07T16:10:00.600Z,0.0
2023-01-07T16:15:00.542Z,0.0
2023-01-07T16:20:00.583Z,0.2
2023-01-07T16:25:00.589Z,0.0
2023-01-07T16:30:00.749Z,0.5
2023-01-07T16:35:00.646Z,1.1
2023-01-07T16:40:00.771Z,0.3
2023-01-07T16:45:00.584Z,0.9
2023-01-07T16:50:00.713Z,1.3
2023-01-07T16:55:00.530Z,1.3
2023-01-07T17:00:00.648Z,2.5
2023-01-07T17:05:00.569Z,0.5
2023-01-07T17:10:00.604Z,0.7
2023-01-07T17:15:00.556Z,2.5
2023-01-07T17:20:00.620Z,2.9
2023-01-07T17:25:00.533Z,1.0
2023-01-07T17:30:00.600Z,3.4
2023-01-07T17:35:00.547Z,2.6
2023-01-07T17:40:00.823Z,1.6
2023-01-07T17:45:00.566Z,1.0
2023-01-07T17:50:00.569Z,3.6
2023-01-07T17:55:00.617Z,0.6
2023-01-07T18:00:00.597Z,2.7
2023-01-07T18:05:00.548Z,2.2
2023-01-07T18:10:00.631Z,1.1
2023-01-07T18:15:00.570Z,2.9
2023-01-07T18:20:00.594Z,1.3
2023-01-07T18:25:00.536Z,2.9
2023-01-07T18:30:00.609Z,1.9
2023-01-07T18:35:00.598Z,2.0
2023-01-07T18:40:00.636Z,1.0
2023-01-07T18:45:00.644Z,3.4
2023-01-07T18:50:00.603Z,0.5
2023-01-07T18:55:00.534Z,1.7
2023-01-07T19:00:02.539Z,1.7
2023-01-07T19:05:00.534Z,3.7
2023-01-07T19:10:00.618Z,1.5
2023-01-07T19:15:00.612Z,4.0
2023-01-07T19:20:00.569Z,2.1
2023-01-07T19:25:00.576Z,3.1
2023-01-07T19:30:00.588Z,2.3
2023-01-07T19:35:00.544Z,4.3
2023-01-07T19:40:00.601Z,5.2
2023-01-07T19:45:00.586Z,2.5
2023-01-07T19:50:00.586Z,8.6
2023-01-07T19:55:00.546Z,4.1
2023-01-07T20:00:00.612Z,5.7
2023-01-07T20:05:00.552Z,4.4
2023-01-07T20:10:00.626Z,4.7
2023-01-07T20:15:02.646Z,2.6
2023-01-07T20:20:00.560Z,5.3
2023-01-07T20:25:00.562Z,5.3
2023-01-07T20:30:00.547Z,4.6
2023-01-07T20:35:00.541Z,6.6
2023-01-07T20:40:00.625Z,3.4
2023-01-07T20:45:00.613Z,2.2
2023-01-07T20:50:00.593Z,5.8
2023-01-07T20:55:00.539Z,3.2
2023-01-07T21:00:00.616Z,6.9
2023-01-07T21:05:00.599Z,7.5
2023-01-07T21:10:00.558Z,7.1
2023-01-07T21:15:00.538Z,2.4
2023-01-07T21:20:00.609Z,5.1
2023-01-07T21:25:00.557Z,2.7
2023-01-07T21:30:00.531Z,2.6
2023-01-07T21:35:00.530Z,7.1
2023-01-07T21:40:00.602Z,5.7
2023-01-07T21:45:00.532Z,4.5
2023-01-07T21:50:00.563Z,4.1
2023-01-07T21:55:00.562Z,6.8
2023-01-07T22:00:00.554Z,4.0
2023-01-07T22:05:00.528Z,3.5
2023-01-07T22:10:00.616Z,3.3
2023-01-07T22:15:00.535Z,4.5
2023-01-07T22:20:00.685Z,7.4
2023-01-07T22:25:00.567Z,7.7
2023-01-07T22:30:00.538Z,1.1
2023-01-07T22:35:00.550Z,7.5
2023-01-07T22:40:00.581Z,6.9
2023-01-07T22:45:00.530Z,5.0
2023-01-07T22:50:00.570Z,3.1
2023-01-07T22:55:00.539Z,3.5
2023-01-07T23:00:00.694Z,7.0
2023-01-07T23:05:00.534Z,4.1
2023-01-07T23:10:00.595Z,6.9
2023-01-07T23:15:00.555Z,6.1
2023-01-07T23:20:00.601Z,6.0
2023-01-07T23:25:00.530Z,4.4
2023-01-07T23:30:00.631Z,5.9
2023-01-07T23:35:00.546Z,6.3
2023-01-07T23:40:00.558Z,4.4
2023-01-07T23:45:00.590Z,8.0
2023-01-07T23:50:00.552Z,3.9
2023-01-07T23:55:00.585Z,4.8
